KDCU/DCU METAR and TAF weather

Enter ICAO airport designator
Station Type Date Time Source
KDCU METAR 2019/10/21 04:53 UTC NOAA

KDCU 210453Z AUTO 12005KT 10SM BKN045 BKN060 16/15 A2993 RMK AO2 SLP131 T01560150


Station Type Date Time Source
KDCU Decoded METAR 2019/10/21 04:53 UTC NOAA

PRYOR FIELD, AL, United States (KDCU) 34-39N 086-57W 176M
Oct 21, 2019 - 12:53 AM EDT / 2019.10.21 0453 UTC
Wind: from the ESE (120 degrees) at 6 MPH (5 KT):0
Visibility: 10 mile(s):0
Sky conditions: mostly cloudy
Temperature: 60.1 F (15.6 C)
Dew Point: 59.0 F (15.0 C)
Relative Humidity: 96%
Pressure (altimeter): 29.93 in. Hg (1013 hPa)
ob: KDCU 210453Z AUTO 12005KT 10SM BKN045 BKN060 16/15 A2993 RMK AO2 SLP131 T01560150
cycle: 5

Station Type Date Time Source
KDCU TAF UTC NOAA

Error!

Example: see airport list